Baker City, OR

9:19 PM PDT on April 26, 2017 (GMT -0700)
Baker City Municipal | | Change Station

Elev 3373 ft 44.84 °N, 117.81 °W | Updated 10 minutes ago

Mostly Cloudy
Mostly Cloudy
38 °F
Feels Like 30 °F
N
13
Wind Variable Wind from NW

Today
High -- | Low -- °F
--% Chance of Precip.
Yesterday
High -- | Low -- °F
Precip. -- in
Pressure 29.82 in
Visibility 10.0 miles
Clouds Few 3000 ft
Scattered Clouds 6500 ft
Mostly Cloudy 9500 ft
Windchill 30 °F
Dew Point 34 °F
Humidity 86%
Rainfall 0.15 in
Snow Depth Not available.
5:47 AM 7:50 PM
New Moon, 1% visible
SPECI KBKE 270409Z AUTO 32011KT 10SM FEW030 SCT065 BKN095 03/01 A2982 RMK AO2 WSHFT 0349 RAE00 P0000 T00330011
Pressure 29.82 in
Visibility 10.0 miles
Clouds Few 3000 ft
Scattered Clouds 6500 ft
Mostly Cloudy 9500 ft
Windchill 30 °F
Dew Point 34 °F
Humidity 86%
Rainfall 0.15 in
Snow Depth Not available.
5:47 AM 7:50 PM
New Moon, 1% visible
SPECI KBKE 270409Z AUTO 32011KT 10SM FEW030 SCT065 BKN095 03/01 A2982 RMK AO2 WSHFT 0349 RAE00 P0000 T00330011

Get Severe Weather Alerts

Thanks for signing up!

Be on the lookout for a verification email in your inbox.

You'll start receiving the daily forecast at 8 AM.

×

10-Day Weather Forecast

Almanac

Astronomy

Apr. 26, 2017 Rise Set
Actual Time
Civil Twilight
Nautical Twilight
Astronomical Twilight
Moon
Length of Visible Light
Length of Day
Tomorrow will be .
, % of the Moon is Illuminated

Today's Extremes

State Highs State Lows

Community

WunderPhotos

WunderBlog® & News

Nearby

Air Quality

  Air Quality AQ Index Pollutant
Not available.

Snow Depth

Station Depth Elevation

Earthquake Activity

City Distance Mag. Time & Date
Minimum magnitude displayed is 2.5.

Coastal Water Temperatures

Place Temperature

Stations

Nearby Weather Stations

Station Location Temp. Windchill Dew Point Humidity Wind Precip. Elev Updated Type
                   

Watches & Warnings

There are currently no watches in effect.